sensor_id;sensor_type;location;lat;lon;timestamp;pressure;altitude;pressure_sealevel;temperature;humidity
23318;BME280;11831;55.918;37.746;2023-03-14T00:02:12;99012.06;;;-0.01;0.00
23318;BME280;11831;55.918;37.746;2023-03-14T00:04:39;99008.78;;;0.05;0.00
23318;BME280;11831;55.918;37.746;2023-03-14T00:07:05;99002.41;;;-0.64;0.00
23318;BME280;11831;55.918;37.746;2023-03-14T00:09:31;98992.81;;;-0.33;0.00
23318;BME280;11831;55.918;37.746;2023-03-14T00:11:58;98986.41;;;-0.30;0.00
23318;BME280;11831;55.918;37.746;2023-03-14T00:14:24;98984.97;;;-0.02;0.00
23318;BME280;11831;55.918;37.746;2023-03-14T00:16:51;98983.50;;;0.04;0.00
23318;BME280;11831;55.918;37.746;2023-03-14T00:19:17;98971.87;;;0.21;0.00
23318;BME280;11831;55.918;37.746;2023-03-14T00:21:43;98955.34;;;-0.82;0.00
23318;BME280;11831;55.918;37.746;2023-03-14T00:24:10;98956.16;;;-0.81;0.00
23318;BME280;11831;55.918;37.746;2023-03-14T00:26:36;98954.13;;;-0.47;0.00
23318;BME280;11831;55.918;37.746;2023-03-14T00:29:03;98948.22;;;-0.49;0.00
23318;BME280;11831;55.918;37.746;2023-03-14T00:31:29;98943.56;;;-0.39;0.00
23318;BME280;11831;55.918;37.746;2023-03-14T00:33:56;98944.72;;;-0.02;0.00
23318;BME280;11831;55.918;37.746;2023-03-14T00:36:23;98940.03;;;-0.54;0.00
23318;BME280;11831;55.918;37.746;2023-03-14T00:38:51;98943.00;;;0.13;0.00
23318;BME280;11831;55.918;37.746;2023-03-14T00:41:20;98934.53;;;-0.28;0.00
23318;BME280;11831;55.918;37.746;2023-03-14T00:43:49;98935.28;;;-0.19;0.00
23318;BME280;11831;55.918;37.746;2023-03-14T00:46:15;98935.72;;;-0.08;0.00
23318;BME280;11831;55.918;37.746;2023-03-14T00:48:44;98934.56;;;-0.44;0.00
23318;BME280;11831;55.918;37.746;2023-03-14T00:51:12;98938.25;;;-0.22;0.00
23318;BME280;11831;55.918;37.746;2023-03-14T00:53:43;98930.06;;;0.35;0.00
23318;BME280;11831;55.918;37.746;2023-03-14T00:56:11;98925.03;;;0.25;0.00
23318;BME280;11831;55.918;37.746;2023-03-14T00:58:38;98923.25;;;-0.45;0.00
23318;BME280;11831;55.918;37.746;2023-03-14T01:01:06;98922.62;;;0.15;0.00
23318;BME280;11831;55.918;37.746;2023-03-14T01:03:33;98915.12;;;-0.27;0.00
23318;BME280;11831;55.918;37.746;2023-03-14T01:06:11;98916.31;;;-0.07;0.00
23318;BME280;11831;55.918;37.746;2023-03-14T01:08:38;98899.31;;;-0.19;0.00
23318;BME280;11831;55.918;37.746;2023-03-14T01:11:09;98901.84;;;-0.34;0.00
23318;BME280;11831;55.918;37.746;2023-03-14T01:13:36;98896.75;;;0.04;0.00
23318;BME280;11831;55.918;37.746;2023-03-14T01:16:05;98889.16;;;0.09;0.00
23318;BME280;11831;55.918;37.746;2023-03-14T01:18:33;98880.84;;;0.20;0.00
23318;BME280;11831;55.918;37.746;2023-03-14T01:21:02;98889.28;;;0.39;0.00
23318;BME280;11831;55.918;37.746;2023-03-14T01:23:29;98901.84;;;-0.03;0.00
23318;BME280;11831;55.918;37.746;2023-03-14T01:25:55;98890.41;;;-0.10;0.00
23318;BME280;11831;55.918;37.746;2023-03-14T01:28:22;98891.78;;;0.09;0.00
23318;BME280;11831;55.918;37.746;2023-03-14T01:30:48;98874.06;;;0.03;0.00
23318;BME280;11831;55.918;37.746;2023-03-14T01:33:14;98862.38;;;0.06;0.00
23318;BME280;11831;55.918;37.746;2023-03-14T01:35:42;98844.53;;;0.01;0.00
23318;BME280;11831;55.918;37.746;2023-03-14T01:38:09;98833.75;;;-0.12;0.00
23318;BME280;11831;55.918;37.746;2023-03-14T01:40:42;98820.94;;;0.30;0.00
23318;BME280;11831;55.918;37.746;2023-03-14T01:43:17;98829.41;;;-0.05;0.00
23318;BME280;11831;55.918;37.746;2023-03-14T01:48:20;98824.59;;;0.07;0.00
23318;BME280;11831;55.918;37.746;2023-03-14T01:50:46;98820.59;;;-0.12;0.00
23318;BME280;11831;55.918;37.746;2023-03-14T01:53:14;98821.72;;;0.16;0.00
23318;BME280;11831;55.918;37.746;2023-03-14T01:55:41;98816.59;;;-0.31;0.00
23318;BME280;11831;55.918;37.746;2023-03-14T01:58:08;98822.88;;;-0.09;0.00
23318;BME280;11831;55.918;37.746;2023-03-14T02:00:34;98831.12;;;0.11;0.00
23318;BME280;11831;55.918;37.746;2023-03-14T02:03:12;98835.22;;;-0.41;0.00
23318;BME280;11831;55.918;37.746;2023-03-14T02:05:41;98833.38;;;-0.32;0.00
23318;BME280;11831;55.918;37.746;2023-03-14T02:08:14;98817.91;;;-0.04;0.00
23318;BME280;11831;55.918;37.746;2023-03-14T02:10:43;98818.66;;;-0.41;0.00
23318;BME280;11831;55.918;37.746;2023-03-14T02:13:11;98797.59;;;-0.64;0.00
23318;BME280;11831;55.918;37.746;2023-03-14T02:15:39;98798.88;;;-0.29;0.00
23318;BME280;11831;55.918;37.746;2023-03-14T02:18:06;98801.75;;;0.07;0.00
23318;BME280;11831;55.918;37.746;2023-03-14T02:23:10;98772.56;;;-0.21;0.00
23318;BME280;11831;55.918;37.746;2023-03-14T02:26:00;98763.78;;;0.10;0.00
23318;BME280;11831;55.918;37.746;2023-03-14T02:28:28;98752.50;;;0.39;0.00
23318;BME280;11831;55.918;37.746;2023-03-14T02:30:54;98748.03;;;0.24;0.00
23318;BME280;11831;55.918;37.746;2023-03-14T02:33:22;98749.38;;;0.20;0.00
23318;BME280;11831;55.918;37.746;2023-03-14T02:36:18;98735.59;;;0.18;0.00
23318;BME280;11831;55.918;37.746;2023-03-14T02:39:24;98736.59;;;0.17;0.00
23318;BME280;11831;55.918;37.746;2023-03-14T02:41:43;98726.88;;;0.03;0.00
23318;BME280;11831;55.918;37.746;2023-03-14T02:44:11;98718.69;;;0.36;0.00
23318;BME280;11831;55.918;37.746;2023-03-14T02:46:37;98707.59;;;0.55;0.00
23318;BME280;11831;55.918;37.746;2023-03-14T02:49:07;98730.06;;;0.13;0.00
23318;BME280;11831;55.918;37.746;2023-03-14T02:51:35;98728.00;;;0.23;0.00
23318;BME280;11831;55.918;37.746;2023-03-14T02:54:02;98726.38;;;0.52;0.00
23318;BME280;11831;55.918;37.746;2023-03-14T02:56:28;98726.00;;;0.25;0.00
23318;BME280;11831;55.918;37.746;2023-03-14T02:58:55;98719.31;;;0.38;0.00
23318;BME280;11831;55.918;37.746;2023-03-14T03:01:24;98712.69;;;0.71;0.00
23318;BME280;11831;55.918;37.746;2023-03-14T03:03:51;98692.09;;;0.45;0.00
23318;BME280;11831;55.918;37.746;2023-03-14T03:06:17;98707.53;;;0.63;0.00
23318;BME280;11831;55.918;37.746;2023-03-14T03:08:44;98704.41;;;0.30;0.00
23318;BME280;11831;55.918;37.746;2023-03-14T03:11:10;98720.56;;;0.27;0.00
23318;BME280;11831;55.918;37.746;2023-03-14T03:13:36;98715.50;;;0.40;0.00
23318;BME280;11831;55.918;37.746;2023-03-14T03:16:03;98719.41;;;0.44;0.00
23318;BME280;11831;55.918;37.746;2023-03-14T03:18:30;98718.44;;;0.08;0.00
23318;BME280;11831;55.918;37.746;2023-03-14T03:21:00;98698.88;;;0.10;0.00
23318;BME280;11831;55.918;37.746;2023-03-14T03:23:28;98696.19;;;-0.05;0.00
23318;BME280;11831;55.918;37.746;2023-03-14T03:25:55;98684.91;;;0.24;0.00
23318;BME280;11831;55.918;37.746;2023-03-14T03:28:21;98696.44;;;0.09;0.00
23318;BME280;11831;55.918;37.746;2023-03-14T03:30:47;98696.44;;;0.23;0.00
23318;BME280;11831;55.918;37.746;2023-03-14T03:33:14;98693.94;;;-0.08;0.00
23318;BME280;11831;55.918;37.746;2023-03-14T03:35:46;98670.88;;;0.17;0.00
23318;BME280;11831;55.918;37.746;2023-03-14T03:38:13;98681.41;;;0.47;0.00
23318;BME280;11831;55.918;37.746;2023-03-14T03:40:40;98660.66;;;0.37;0.00
23318;BME280;11831;55.918;37.746;2023-03-14T03:43:06;98653.38;;;0.24;0.00
23318;BME280;11831;55.918;37.746;2023-03-14T03:45:34;98648.84;;;0.04;0.00
23318;BME280;11831;55.918;37.746;2023-03-14T03:48:01;98651.47;;;0.18;0.00
23318;BME280;11831;55.918;37.746;2023-03-14T03:50:27;98643.22;;;0.07;0.00
23318;BME280;11831;55.918;37.746;2023-03-14T03:52:54;98625.06;;;0.26;0.00
23318;BME280;11831;55.918;37.746;2023-03-14T03:55:20;98620.91;;;0.17;0.00
23318;BME280;11831;55.918;37.746;2023-03-14T03:57:47;98612.75;;;-0.03;0.00
23318;BME280;11831;55.918;37.746;2023-03-14T04:00:13;98624.81;;;0.07;0.00
23318;BME280;11831;55.918;37.746;2023-03-14T04:02:40;98611.28;;;0.24;0.00
23318;BME280;11831;55.918;37.746;2023-03-14T04:05:07;98598.72;;;0.35;0.00
23318;BME280;11831;55.918;37.746;2023-03-14T04:07:34;98631.06;;;0.20;0.00
23318;BME280;11831;55.918;37.746;2023-03-14T04:10:00;98618.47;;;0.16;0.00
23318;BME280;11831;55.918;37.746;2023-03-14T04:12:27;98623.81;;;0.22;0.00
23318;BME280;11831;55.918;37.746;2023-03-14T04:14:53;98615.31;;;0.35;0.00
23318;BME280;11831;55.918;37.746;2023-03-14T04:17:20;98615.19;;;0.28;0.00
23318;BME280;11831;55.918;37.746;2023-03-14T04:19:46;98611.03;;;0.34;0.00
23318;BME280;11831;55.918;37.746;2023-03-14T04:22:15;98612.41;;;0.15;0.00
23318;BME280;11831;55.918;37.746;2023-03-14T04:24:41;98590.34;;;0.46;0.00
23318;BME280;11831;55.918;37.746;2023-03-14T04:27:08;98591.34;;;0.30;0.00
23318;BME280;11831;55.918;37.746;2023-03-14T04:29:34;98584.63;;;0.42;0.00
23318;BME280;11831;55.918;37.746;2023-03-14T04:32:01;98570.22;;;0.38;0.00
23318;BME280;11831;55.918;37.746;2023-03-14T04:34:27;98592.63;;;0.19;0.00
23318;BME280;11831;55.918;37.746;2023-03-14T04:36:53;98598.78;;;0.26;0.00
23318;BME280;11831;55.918;37.746;2023-03-14T04:39:20;98588.16;;;0.49;0.00
23318;BME280;11831;55.918;37.746;2023-03-14T04:41:47;98563.75;;;0.55;0.00
23318;BME280;11831;55.918;37.746;2023-03-14T04:44:13;98566.81;;;0.59;0.00
23318;BME280;11831;55.918;37.746;2023-03-14T04:46:39;98555.25;;;0.39;0.00
23318;BME280;11831;55.918;37.746;2023-03-14T04:49:06;98549.69;;;0.63;0.00
23318;BME280;11831;55.918;37.746;2023-03-14T04:51:32;98545.94;;;0.57;0.00
23318;BME280;11831;55.918;37.746;2023-03-14T04:53:58;98536.78;;;0.68;0.00
23318;BME280;11831;55.918;37.746;2023-03-14T04:56:26;98534.03;;;0.76;0.00
23318;BME280;11831;55.918;37.746;2023-03-14T04:58:53;98545.25;;;0.64;0.00
23318;BME280;11831;55.918;37.746;2023-03-14T05:01:20;98527.16;;;0.60;0.00
23318;BME280;11831;55.918;37.746;2023-03-14T05:03:46;98523.44;;;0.91;0.00
23318;BME280;11831;55.918;37.746;2023-03-14T05:06:13;98521.19;;;0.67;0.00
23318;BME280;11831;55.918;37.746;2023-03-14T05:08:39;98519.47;;;0.80;0.00
23318;BME280;11831;55.918;37.746;2023-03-14T05:11:06;98530.56;;;0.76;0.00
23318;BME280;11831;55.918;37.746;2023-03-14T05:13:33;98530.78;;;0.96;0.00
23318;BME280;11831;55.918;37.746;2023-03-14T05:16:07;98529.78;;;0.97;0.00
23318;BME280;11831;55.918;37.746;2023-03-14T05:18:37;98518.78;;;1.14;0.00
23318;BME280;11831;55.918;37.746;2023-03-14T05:21:04;98522.22;;;1.15;0.00
23318;BME280;11831;55.918;37.746;2023-03-14T05:23:32;98535.63;;;1.20;0.00
23318;BME280;11831;55.918;37.746;2023-03-14T05:25:59;98525.31;;;1.46;0.00
23318;BME280;11831;55.918;37.746;2023-03-14T05:28:26;98515.28;;;1.29;0.00
23318;BME280;11831;55.918;37.746;2023-03-14T05:30:53;98505.63;;;1.42;0.00
23318;BME280;11831;55.918;37.746;2023-03-14T05:33:19;98527.31;;;1.44;0.00
23318;BME280;11831;55.918;37.746;2023-03-14T05:35:45;98530.25;;;1.28;0.00
23318;BME280;11831;55.918;37.746;2023-03-14T05:38:12;98529.72;;;1.39;0.00
23318;BME280;11831;55.918;37.746;2023-03-14T05:40:39;98529.34;;;1.42;0.00
23318;BME280;11831;55.918;37.746;2023-03-14T05:43:05;98554.44;;;1.38;0.00
23318;BME280;11831;55.918;37.746;2023-03-14T05:45:34;98550.41;;;1.70;0.00
23318;BME280;11831;55.918;37.746;2023-03-14T05:48:02;98542.75;;;1.75;0.00
23318;BME280;11831;55.918;37.746;2023-03-14T05:50:28;98560.13;;;1.98;0.00
23318;BME280;11831;55.918;37.746;2023-03-14T05:52:55;98549.84;;;1.75;0.00
23318;BME280;11831;55.918;37.746;2023-03-14T05:55:22;98544.81;;;2.14;0.00
23318;BME280;11831;55.918;37.746;2023-03-14T05:57:49;98550.59;;;1.97;0.00
23318;BME280;11831;55.918;37.746;2023-03-14T06:00:16;98533.28;;;2.22;0.00
23318;BME280;11831;55.918;37.746;2023-03-14T06:02:44;98534.09;;;2.23;0.00
23318;BME280;11831;55.918;37.746;2023-03-14T06:05:11;98543.53;;;2.04;0.00
23318;BME280;11831;55.918;37.746;2023-03-14T06:07:37;98534.59;;;2.05;0.00
23318;BME280;11831;55.918;37.746;2023-03-14T06:10:04;98522.34;;;2.25;0.00
23318;BME280;11831;55.918;37.746;2023-03-14T06:12:31;98537.87;;;2.13;0.00
23318;BME280;11831;55.918;37.746;2023-03-14T06:14:57;98533.91;;;2.24;0.00
23318;BME280;11831;55.918;37.746;2023-03-14T06:17:23;98534.75;;;2.38;0.00
23318;BME280;11831;55.918;37.746;2023-03-14T06:19:50;98517.78;;;2.60;0.00
23318;BME280;11831;55.918;37.746;2023-03-14T06:22:17;98517.16;;;2.58;0.00
23318;BME280;11831;55.918;37.746;2023-03-14T06:24:43;98518.19;;;2.64;0.00
23318;BME280;11831;55.918;37.746;2023-03-14T06:27:09;98515.53;;;2.51;0.00
23318;BME280;11831;55.918;37.746;2023-03-14T06:29:36;98518.47;;;2.89;0.00
23318;BME280;11831;55.918;37.746;2023-03-14T06:32:02;98512.78;;;2.98;0.00
23318;BME280;11831;55.918;37.746;2023-03-14T06:34:29;98498.34;;;2.94;0.00
23318;BME280;11831;55.918;37.746;2023-03-14T06:36:55;98525.56;;;2.88;0.00
23318;BME280;11831;55.918;37.746;2023-03-14T06:39:21;98501.41;;;3.04;0.00
23318;BME280;11831;55.918;37.746;2023-03-14T06:41:48;98503.66;;;3.14;0.00
23318;BME280;11831;55.918;37.746;2023-03-14T06:44:14;98495.12;;;3.12;0.00
23318;BME280;11831;55.918;37.746;2023-03-14T06:46:40;98493.50;;;3.24;0.00
23318;BME280;11831;55.918;37.746;2023-03-14T06:49:07;98495.72;;;3.21;0.00
23318;BME280;11831;55.918;37.746;2023-03-14T06:51:33;98490.22;;;3.29;0.00
23318;BME280;11831;55.918;37.746;2023-03-14T06:54:01;98485.56;;;3.24;0.00
23318;BME280;11831;55.918;37.746;2023-03-14T06:56:27;98482.31;;;3.29;0.00
23318;BME280;11831;55.918;37.746;2023-03-14T06:58:54;98477.22;;;3.34;0.00
23318;BME280;11831;55.918;37.746;2023-03-14T07:01:23;98481.09;;;3.45;0.00
23318;BME280;11831;55.918;37.746;2023-03-14T07:03:50;98481.69;;;3.27;0.00
23318;BME280;11831;55.918;37.746;2023-03-14T07:06:17;98471.94;;;3.40;0.00
23318;BME280;11831;55.918;37.746;2023-03-14T07:08:43;98495.94;;;3.39;0.00
23318;BME280;11831;55.918;37.746;2023-03-14T07:11:10;98488.19;;;3.57;0.00
23318;BME280;11831;55.918;37.746;2023-03-14T07:13:38;98470.09;;;3.48;0.00
23318;BME280;11831;55.918;37.746;2023-03-14T07:16:05;98472.31;;;3.57;0.00
23318;BME280;11831;55.918;37.746;2023-03-14T07:18:32;98486.53;;;3.69;0.00
23318;BME280;11831;55.918;37.746;2023-03-14T07:20:58;98481.91;;;3.45;0.00
23318;BME280;11831;55.918;37.746;2023-03-14T07:23:25;98477.00;;;3.68;0.00
23318;BME280;11831;55.918;37.746;2023-03-14T07:25:51;98485.31;;;3.59;0.00
23318;BME280;11831;55.918;37.746;2023-03-14T07:28:19;98501.38;;;3.64;0.00
23318;BME280;11831;55.918;37.746;2023-03-14T07:30:47;98497.09;;;3.76;0.00
23318;BME280;11831;55.918;37.746;2023-03-14T07:33:13;98520.66;;;3.84;0.00
23318;BME280;11831;55.918;37.746;2023-03-14T07:35:40;98490.81;;;3.70;0.00
23318;BME280;11831;55.918;37.746;2023-03-14T07:38:06;98494.06;;;3.72;0.00
23318;BME280;11831;55.918;37.746;2023-03-14T07:40:33;98492.44;;;3.71;0.00
23318;BME280;11831;55.918;37.746;2023-03-14T07:42:59;98478.38;;;3.78;0.00
23318;BME280;11831;55.918;37.746;2023-03-14T07:45:25;98484.84;;;3.88;0.00
23318;BME280;11831;55.918;37.746;2023-03-14T07:47:52;98482.41;;;4.00;0.00
23318;BME280;11831;55.918;37.746;2023-03-14T07:50:18;98485.63;;;3.95;0.00
23318;BME280;11831;55.918;37.746;2023-03-14T07:52:45;98486.63;;;4.08;0.00
23318;BME280;11831;55.918;37.746;2023-03-14T07:55:11;98484.81;;;3.95;0.00
23318;BME280;11831;55.918;37.746;2023-03-14T07:57:39;98482.47;;;4.25;0.00
23318;BME280;11831;55.918;37.746;2023-03-14T08:00:06;98478.88;;;4.13;0.00
23318;BME280;11831;55.918;37.746;2023-03-14T08:02:40;98482.75;;;4.10;0.00
23318;BME280;11831;55.918;37.746;2023-03-14T08:05:07;98492.03;;;4.26;0.00
23318;BME280;11831;55.918;37.746;2023-03-14T08:07:34;98494.66;;;4.39;0.00
23318;BME280;11831;55.918;37.746;2023-03-14T08:10:00;98494.28;;;4.29;0.00
23318;BME280;11831;55.918;37.746;2023-03-14T08:12:27;98480.94;;;4.49;0.00
23318;BME280;11831;55.918;37.746;2023-03-14T08:14:53;98507.91;;;4.26;0.00
23318;BME280;11831;55.918;37.746;2023-03-14T08:17:19;98488.12;;;4.42;0.00
23318;BME280;11831;55.918;37.746;2023-03-14T08:19:46;98492.03;;;4.26;0.00
23318;BME280;11831;55.918;37.746;2023-03-14T08:22:12;98493.06;;;4.31;0.00
23318;BME280;11831;55.918;37.746;2023-03-14T08:24:39;98500.78;;;4.33;0.00
23318;BME280;11831;55.918;37.746;2023-03-14T08:27:07;98488.94;;;4.42;0.00
23318;BME280;11831;55.918;37.746;2023-03-14T08:29:33;98489.94;;;4.41;0.00
23318;BME280;11831;55.918;37.746;2023-03-14T08:32:00;98516.88;;;4.31;0.00
23318;BME280;11831;55.918;37.746;2023-03-14T08:34:26;98502.47;;;4.65;0.00
23318;BME280;11831;55.918;37.746;2023-03-14T08:36:52;98505.53;;;4.56;0.00
23318;BME280;11831;55.918;37.746;2023-03-14T08:39:18;98507.50;;;4.35;0.00
23318;BME280;11831;55.918;37.746;2023-03-14T08:41:45;98521.97;;;4.26;0.00
23318;BME280;11831;55.918;37.746;2023-03-14T08:44:11;98493.28;;;4.30;0.00
23318;BME280;11831;55.918;37.746;2023-03-14T08:46:37;98518.88;;;4.36;0.00
23318;BME280;11831;55.918;37.746;2023-03-14T08:49:04;98531.78;;;4.13;0.00
23318;BME280;11831;55.918;37.746;2023-03-14T08:51:30;98509.75;;;4.25;0.00
23318;BME280;11831;55.918;37.746;2023-03-14T08:53:57;98511.97;;;4.28;0.00
23318;BME280;11831;55.918;37.746;2023-03-14T08:56:23;98507.06;;;4.39;0.00
23318;BME280;11831;55.918;37.746;2023-03-14T08:58:49;98503.41;;;4.40;0.00
23318;BME280;11831;55.918;37.746;2023-03-14T09:01:16;98505.19;;;4.46;0.00
23318;BME280;11831;55.918;37.746;2023-03-14T09:03:42;98490.19;;;4.33;0.00
23318;BME280;11831;55.918;37.746;2023-03-14T09:06:10;98491.75;;;4.47;0.00
23318;BME280;11831;55.918;37.746;2023-03-14T09:08:36;98491.06;;;4.58;0.00
23318;BME280;11831;55.918;37.746;2023-03-14T09:11:03;98476.84;;;4.59;0.00
23318;BME280;11831;55.918;37.746;2023-03-14T09:13:32;98473.94;;;4.67;0.00
23318;BME280;11831;55.918;37.746;2023-03-14T09:15:59;98479.66;;;4.58;0.00
23318;BME280;11831;55.918;37.746;2023-03-14T09:18:25;98473.78;;;4.56;0.00
23318;BME280;11831;55.918;37.746;2023-03-14T09:20:51;98474.09;;;4.73;0.00
23318;BME280;11831;55.918;37.746;2023-03-14T09:23:18;98471.66;;;4.71;0.00
23318;BME280;11831;55.918;37.746;2023-03-14T09:25:44;98478.84;;;4.89;0.00
23318;BME280;11831;55.918;37.746;2023-03-14T09:28:11;98482.50;;;4.94;0.00
23318;BME280;11831;55.918;37.746;2023-03-14T09:30:37;98493.72;;;4.96;0.00
23318;BME280;11831;55.918;37.746;2023-03-14T09:33:04;98484.84;;;5.09;0.00
23318;BME280;11831;55.918;37.746;2023-03-14T09:35:30;98476.81;;;5.22;0.00
23318;BME280;11831;55.918;37.746;2023-03-14T09:37:57;98490.66;;;5.24;0.00
23318;BME280;11831;55.918;37.746;2023-03-14T09:40:23;98486.69;;;5.34;0.00
23318;BME280;11831;55.918;37.746;2023-03-14T09:42:54;98478.44;;;5.23;0.00
23318;BME280;11831;55.918;37.746;2023-03-14T09:45:34;98496.19;;;5.41;0.00
23318;BME280;11831;55.918;37.746;2023-03-14T09:48:04;98502.09;;;5.18;0.00
23318;BME280;11831;55.918;37.746;2023-03-14T09:50:40;98491.69;;;5.42;0.00
23318;BME280;11831;55.918;37.746;2023-03-14T09:53:17;98501.19;;;5.31;0.00
23318;BME280;11831;55.918;37.746;2023-03-14T09:55:47;98505.50;;;5.50;0.00
23318;BME280;11831;55.918;37.746;2023-03-14T09:58:21;98483.38;;;5.38;0.00
23318;BME280;11831;55.918;37.746;2023-03-14T10:00:50;98494.69;;;5.52;0.00
23318;BME280;11831;55.918;37.746;2023-03-14T10:03:21;98482.44;;;5.51;0.00
23318;BME280;11831;55.918;37.746;2023-03-14T10:05:49;98491.63;;;5.48;0.00
23318;BME280;11831;55.918;37.746;2023-03-14T10:08:15;98489.78;;;5.74;0.00
23318;BME280;11831;55.918;37.746;2023-03-14T10:10:42;98479.22;;;5.67;0.00
23318;BME280;11831;55.918;37.746;2023-03-14T10:13:25;98494.69;;;5.95;0.00
23318;BME280;11831;55.918;37.746;2023-03-14T10:15:55;98507.84;;;5.83;0.00
23318;BME280;11831;55.918;37.746;2023-03-14T10:18:24;98468.69;;;5.79;0.00
23318;BME280;11831;55.918;37.746;2023-03-14T10:21:03;98459.78;;;5.73;0.00
23318;BME280;11831;55.918;37.746;2023-03-14T10:23:32;98476.00;;;5.65;0.00
23318;BME280;11831;55.918;37.746;2023-03-14T10:26:15;98463.56;;;6.02;0.00
23318;BME280;11831;55.918;37.746;2023-03-14T10:28:47;98480.66;;;5.88;0.00
23318;BME280;11831;55.918;37.746;2023-03-14T10:31:15;98477.19;;;5.87;0.00
23318;BME280;11831;55.918;37.746;2023-03-14T10:33:41;98495.38;;;5.66;0.00
23318;BME280;11831;55.918;37.746;2023-03-14T10:36:16;98497.22;;;5.65;0.00
23318;BME280;11831;55.918;37.746;2023-03-14T10:38:44;98496.09;;;5.98;0.00
23318;BME280;11831;55.918;37.746;2023-03-14T10:41:40;98479.69;;;5.64;0.00
23318;BME280;11831;55.918;37.746;2023-03-14T10:44:09;98482.03;;;5.72;0.00
23318;BME280;11831;55.918;37.746;2023-03-14T10:46:38;98478.38;;;5.48;0.00
23318;BME280;11831;55.918;37.746;2023-03-14T10:49:42;98474.66;;;5.74;0.00
23318;BME280;11831;55.918;37.746;2023-03-14T10:52:17;98464.66;;;5.76;0.00
23318;BME280;11831;55.918;37.746;2023-03-14T10:54:49;98462.75;;;5.83;0.00
23318;BME280;11831;55.918;37.746;2023-03-14T10:57:20;98467.63;;;5.86;0.00
23318;BME280;11831;55.918;37.746;2023-03-14T10:59:47;98459.38;;;5.95;0.00
23318;BME280;11831;55.918;37.746;2023-03-14T11:05:57;98448.78;;;5.95;0.00
23318;BME280;11831;55.918;37.746;2023-03-14T11:08:13;98447.44;;;6.04;0.00
23318;BME280;11831;55.918;37.746;2023-03-14T11:10:45;98448.97;;;6.11;0.00
23318;BME280;11831;55.918;37.746;2023-03-14T11:16:05;98432.31;;;6.22;0.00
23318;BME280;11831;55.918;37.746;2023-03-14T11:21:50;98445.13;;;6.56;0.00
23318;BME280;11831;55.918;37.746;2023-03-14T11:27:51;98428.41;;;6.55;0.00
23318;BME280;11831;55.918;37.746;2023-03-14T11:32:38;98453.63;;;6.76;0.00
23318;BME280;11831;55.918;37.746;2023-03-14T11:38:38;98449.94;;;6.77;0.00
23318;BME280;11831;55.918;37.746;2023-03-14T11:41:14;98459.31;;;6.79;0.00
23318;BME280;11831;55.918;37.746;2023-03-14T11:43:47;98458.16;;;6.87;0.00
23318;BME280;11831;55.918;37.746;2023-03-14T11:46:21;98454.94;;;6.85;0.00
23318;BME280;11831;55.918;37.746;2023-03-14T11:49:01;98468.56;;;6.89;0.00
23318;BME280;11831;55.918;37.746;2023-03-14T11:51:34;98453.87;;;6.86;0.00
23318;BME280;11831;55.918;37.746;2023-03-14T11:54:29;98464.62;;;6.79;0.00
23318;BME280;11831;55.918;37.746;2023-03-14T11:57:14;98462.91;;;6.85;0.00
23318;BME280;11831;55.918;37.746;2023-03-14T12:02:22;98476.75;;;6.87;0.00
23318;BME280;11831;55.918;37.746;2023-03-14T12:10:23;98464.50;;;6.86;0.00
23318;BME280;11831;55.918;37.746;2023-03-14T12:12:49;98479.47;;;7.10;0.00
23318;BME280;11831;55.918;37.746;2023-03-14T12:15:21;98482.50;;;7.14;0.00
23318;BME280;11831;55.918;37.746;2023-03-14T12:17:55;98471.97;;;7.31;0.00
23318;BME280;11831;55.918;37.746;2023-03-14T12:20:22;98481.34;;;7.22;0.00
23318;BME280;11831;55.918;37.746;2023-03-14T12:22:56;98483.63;;;7.06;0.00
23318;BME280;11831;55.918;37.746;2023-03-14T12:25:30;98483.53;;;7.25;0.00
23318;BME280;11831;55.918;37.746;2023-03-14T12:35:40;98478.91;;;7.20;0.00
23318;BME280;11831;55.918;37.746;2023-03-14T12:38:13;98493.69;;;7.16;0.00
23318;BME280;11831;55.918;37.746;2023-03-14T12:41:20;98488.38;;;7.16;0.00
23318;BME280;11831;55.918;37.746;2023-03-14T12:43:49;98470.34;;;7.18;0.00
23318;BME280;11831;55.918;37.746;2023-03-14T12:46:24;98484.44;;;7.07;0.00
23318;BME280;11831;55.918;37.746;2023-03-14T12:51:44;98488.84;;;7.13;0.00
23318;BME280;11831;55.918;37.746;2023-03-14T12:57:35;98477.19;;;7.14;0.00
23318;BME280;11831;55.918;37.746;2023-03-14T13:00:23;98460.75;;;7.17;0.00
23318;BME280;11831;55.918;37.746;2023-03-14T13:03:22;98492.94;;;6.85;0.00
23318;BME280;11831;55.918;37.746;2023-03-14T13:06:01;98468.53;;;6.77;0.00
23318;BME280;11831;55.918;37.746;2023-03-14T13:08:47;98493.06;;;7.02;0.00
23318;BME280;11831;55.918;37.746;2023-03-14T13:11:19;98484.94;;;6.74;0.00
23318;BME280;11831;55.918;37.746;2023-03-14T13:13:57;98494.31;;;6.88;0.00
23318;BME280;11831;55.918;37.746;2023-03-14T13:16:24;98471.38;;;7.05;0.00
23318;BME280;11831;55.918;37.746;2023-03-14T13:19:02;98477.16;;;6.72;0.00
23318;BME280;11831;55.918;37.746;2023-03-14T13:21:35;98479.88;;;6.84;0.00
23318;BME280;11831;55.918;37.746;2023-03-14T13:24:05;98472.53;;;6.68;0.00
23318;BME280;11831;55.918;37.746;2023-03-14T13:31:50;98488.53;;;6.79;0.00
23318;BME280;11831;55.918;37.746;2023-03-14T13:34:17;98467.78;;;7.00;0.00
23318;BME280;11831;55.918;37.746;2023-03-14T13:36:44;98483.47;;;6.90;0.00
23318;BME280;11831;55.918;37.746;2023-03-14T13:39:13;98475.59;;;6.83;0.00
23318;BME280;11831;55.918;37.746;2023-03-14T13:41:41;98480.56;;;6.79;0.00
23318;BME280;11831;55.918;37.746;2023-03-14T13:44:13;98477.75;;;7.16;0.00
23318;BME280;11831;55.918;37.746;2023-03-14T13:46:42;98471.56;;;6.92;0.00
23318;BME280;11831;55.918;37.746;2023-03-14T13:49:26;98495.72;;;7.02;0.00
23318;BME280;11831;55.918;37.746;2023-03-14T13:51:54;98467.91;;;7.05;0.00
23318;BME280;11831;55.918;37.746;2023-03-14T13:54:22;98468.72;;;7.05;0.00
23318;BME280;11831;55.918;37.746;2023-03-14T13:57:02;98466.53;;;7.26;0.00
23318;BME280;11831;55.918;37.746;2023-03-14T13:59:33;98469.37;;;7.01;0.00
23318;BME280;11831;55.918;37.746;2023-03-14T14:02:01;98463.66;;;7.15;0.00
23318;BME280;11831;55.918;37.746;2023-03-14T14:04:33;98468.34;;;7.02;0.00
23318;BME280;11831;55.918;37.746;2023-03-14T14:07:10;98477.94;;;7.03;0.00
23318;BME280;11831;55.918;37.746;2023-03-14T14:09:41;98479.94;;;7.19;0.00
23318;BME280;11831;55.918;37.746;2023-03-14T14:15:27;98470.47;;;7.23;0.00